Heat Index SAI AWOS Graphical Display Untitled Document
Bertrand Chaffee Hospital Heliport (2NK6) Springville, New York, USA
290
18:18
30/05/2016
07
18
270V350
30.00
2900
1420
77(F), 25(C)
54(F), 12(C)
78 F
46%
FEW050
10
N/A
0"
N/A
18:18 zulu Wind 290 at 07 Knots, Gusting 18 Knots, Altimeter 30.00
METAR K2NK6 301818Z AUTO 29007G18KT 270V350 10SM FEW050 25/12 A3000 A02 P0000
METAR:
FAA Disclaimer--Advisory Use ONLY, not for flight info--
INFO:
Wind Direction:
Wind Speed:
Wind Gust:
Wind Variable:
Altimeter:
Dens Alt:
Elev:
Temp:
Dwpt:
Heat Index
Rel Humidity:
Ceiling:
Visibility:
Prsnt Wea:
PCPN:
Remarks:
How to read the WebPage